»·PEaware :: NWA1187 KSNA-KLAS

NWA1187 :: KSNA-KLAS

FLIGHT INFORMATION

Flight Status: Arrived
Operator:
Northwest Airlines
More flights by this operator :: More flights under this callsign
Pilot: Anonymous 12254 (12254)
Aircraft: SAAB 340
(SF34)
More flights by this aircraft type
Origin: KSNA John Wayne-Orange Co
United States
Destination: KLAS McCarran Intl
United States
More flights between these airports :: More routes between these airports
Route: MUSEL8 DAG CRESO4
File this flight plan on PilotEdge
Remarks:
Altitude:
(Current/Filed)
17,000ft
Speed:
(Current/Filed)
200kts
Departed: 22-Apr-19 07:55 PM
Arrived: 22-Apr-19 09:00 PM
Distance/Time
Traveled:
197nm/1:05
Distance/Time
To Go:
Arrived

Flight Plot

Page will automatically refresh every two minutes.

Flight plan parsing failed; only flown route is shown


Map Options




Map Legend


Flown Route
Filed Route
Departure Airport
Arrival Airport
Navaid (VOR, NDB)
Fix

Horizontal Profiles

Position Reports

Time Latitude Longitude Heading Altitude Ground
Speed
22-Apr-19 19:36 33.675328 -117.864780 118 60ft 0kts
22-Apr-19 19:37 33.675328 -117.864780 118 60ft 0kts
22-Apr-19 19:38 33.675328 -117.864780 118 60ft 0kts
22-Apr-19 19:39 33.675328 -117.864780 118 60ft 0kts
22-Apr-19 19:40 33.675328 -117.864780 118 60ft 0kts
22-Apr-19 19:41 33.675328 -117.864780 118 60ft 0kts
22-Apr-19 19:42 33.675328 -117.864780 118 60ft 0kts
22-Apr-19 19:43 33.675328 -117.864780 118 60ft 0kts
22-Apr-19 19:44 33.675453 -117.865046 120 60ft 5kts
22-Apr-19 19:45 33.675391 -117.865545 33 60ft 0kts
22-Apr-19 19:46 33.678051 -117.863961 28 60ft 24kts
22-Apr-19 19:47 33.680618 -117.863022 301 60ft 0kts
22-Apr-19 19:48 33.680618 -117.863022 301 60ft 0kts
22-Apr-19 19:49 33.681165 -117.864229 297 60ft 0kts
22-Apr-19 19:50 33.681165 -117.864229 297 60ft 0kts
22-Apr-19 19:51 33.681165 -117.864229 297 60ft 0kts
22-Apr-19 19:52 33.681165 -117.864229 297 60ft 0kts
22-Apr-19 19:53 33.681325 -117.865242 208 60ft 0kts
22-Apr-19 19:54 33.655090 -117.882704 209 553ft 184kts
22-Apr-19 19:55 33.600656 -117.894601 188 2730ft 180kts
22-Apr-19 19:56 33.556778 -117.914359 250 4767ft 198kts
22-Apr-19 19:57 33.551411 -117.983002 262 6702ft 214kts
22-Apr-19 19:58 33.544734 -118.055794 263 8537ft 225kts
22-Apr-19 19:59 33.581779 -118.077021 32 10359ft 185kts
22-Apr-19 20:00 33.630078 -118.057964 4 11981ft 188kts
22-Apr-19 20:01 33.682718 -118.056670 3 13382ft 190kts
22-Apr-19 20:02 33.735994 -118.055668 3 14626ft 192kts
22-Apr-19 20:03 33.788660 -118.048587 29 15707ft 194kts
22-Apr-19 20:04 33.832786 -118.010048 34 16650ft 197kts
22-Apr-19 20:05 33.878555 -117.968643 34 16945ft 218kts
22-Apr-19 20:06 33.928797 -117.923092 34 16934ft 232kts
22-Apr-19 20:07 33.981270 -117.875451 34 16937ft 236kts
22-Apr-19 20:08 34.033905 -117.827592 34 16943ft 238kts
22-Apr-19 20:09 34.085295 -117.776715 41 16943ft 240kts
22-Apr-19 20:10 34.130175 -117.717460 44 16959ft 242kts
22-Apr-19 20:11 34.175329 -117.656562 44 16963ft 243kts
22-Apr-19 20:12 34.220320 -117.595815 44 16969ft 243kts
22-Apr-19 20:13 34.265439 -117.534786 44 16974ft 243kts
22-Apr-19 20:14 34.310613 -117.473581 44 16985ft 243kts
22-Apr-19 20:15 34.355627 -117.412487 44 16999ft 242kts
22-Apr-19 20:16 34.400591 -117.351348 44 17014ft 242kts
22-Apr-19 20:17 34.445521 -117.290152 45 17007ft 243kts
22-Apr-19 20:18 34.490857 -117.228282 45 17003ft 243kts
22-Apr-19 20:19 34.536058 -117.166504 45 17008ft 243kts
22-Apr-19 20:20 34.581318 -117.104727 45 17015ft 243kts
22-Apr-19 20:21 34.626671 -117.042567 45 17001ft 245kts
22-Apr-19 20:22 34.672222 -116.980006 45 16986ft 248kts
22-Apr-19 20:23 34.718175 -116.916724 46 16972ft 250kts
22-Apr-19 20:24 34.764513 -116.852752 46 16970ft 253kts
22-Apr-19 20:25 34.811321 -116.788018 46 16980ft 254kts
22-Apr-19 20:26 34.858321 -116.722901 46 16979ft 255kts
22-Apr-19 20:27 34.905259 -116.657742 46 16979ft 254kts
22-Apr-19 20:28 34.951698 -116.593168 46 16979ft 253kts
22-Apr-19 20:29 34.998025 -116.528679 46 16982ft 250kts
22-Apr-19 20:30 35.043939 -116.464741 46 16988ft 248kts
22-Apr-19 20:31 35.088068 -116.403133 46 16885ft 223kts
22-Apr-19 20:32 35.125712 -116.350607 45 16248ft 195kts
22-Apr-19 20:33 35.153773 -116.293920 56 15384ft 199kts
22-Apr-19 20:34 35.181803 -116.233752 57 14318ft 206kts
22-Apr-19 20:35 35.210453 -116.171968 57 13241ft 210kts
22-Apr-19 20:36 35.239526 -116.109137 57 12243ft 209kts
22-Apr-19 20:37 35.267950 -116.047584 57 11439ft 206kts
22-Apr-19 20:39 35.296106 -115.986532 57 10642ft 205kts
22-Apr-19 20:40 35.324231 -115.925429 57 9997ft 199kts
22-Apr-19 20:41 35.349741 -115.869926 57 9991ft 176kts
22-Apr-19 20:42 35.373102 -115.819046 57 9992ft 166kts
22-Apr-19 20:43 35.397637 -115.765614 58 10010ft 200kts
22-Apr-19 20:44 35.426481 -115.702452 58 9996ft 219kts
22-Apr-19 20:45 35.456888 -115.635794 58 9991ft 225kts
22-Apr-19 20:46 35.487607 -115.568349 58 9990ft 226kts
22-Apr-19 20:47 35.523491 -115.505195 48 9991ft 225kts
22-Apr-19 20:48 35.564401 -115.446424 47 9987ft 223kts
22-Apr-19 20:49 35.604086 -115.389921 47 9985ft 211kts
22-Apr-19 20:50 35.652244 -115.356780 12 9830ft 211kts
22-Apr-19 20:51 35.712503 -115.341748 12 9059ft 225kts
22-Apr-19 20:52 35.773403 -115.326485 12 8129ft 222kts
22-Apr-19 20:53 35.833665 -115.309201 18 7123ft 222kts
22-Apr-19 20:54 35.883643 -115.276580 27 6454ft 180kts
22-Apr-19 20:55 35.925842 -115.255856 21 5518ft 168kts
22-Apr-19 20:56 35.967019 -115.230516 21 4451ft 154kts
22-Apr-19 20:57 36.003984 -115.210787 25 3913ft 145kts
22-Apr-19 20:58 36.040887 -115.189736 25 3025ft 138kts
22-Apr-19 20:59 36.075455 -115.170397 25 2282ft 132kts
22-Apr-19 21:00 36.093567 -115.159211 107 2103ft 12kts
22-Apr-19 21:01 36.093423 -115.158816 116 2102ft 0kts
22-Apr-19 21:02 36.092286 -115.155799 115 2095ft 12kts
22-Apr-19 21:03 36.091625 -115.155235 167 2095ft 13kts

Navigation Log

Ident Type
Flight plan parsing failed, navigation log unavailable